sensor_id;sensor_type;location;lat;lon;timestamp;P1;durP1;ratioP1;P2;durP2;ratioP2
25237;SDS011;13185;50.872;5.306;2023-11-18T00:00:25;12.13;;;8.48;;
25237;SDS011;13185;50.872;5.306;2023-11-18T00:02:50;12.20;;;8.50;;
25237;SDS011;13185;50.872;5.306;2023-11-18T00:05:16;14.02;;;8.00;;
25237;SDS011;13185;50.872;5.306;2023-11-18T00:07:43;12.77;;;7.28;;
25237;SDS011;13185;50.872;5.306;2023-11-18T00:10:09;11.20;;;8.55;;
25237;SDS011;13185;50.872;5.306;2023-11-18T00:12:35;11.25;;;8.23;;
25237;SDS011;13185;50.872;5.306;2023-11-18T00:15:02;14.50;;;8.35;;
25237;SDS011;13185;50.872;5.306;2023-11-18T00:17:29;11.15;;;7.57;;
25237;SDS011;13185;50.872;5.306;2023-11-18T00:19:58;12.70;;;8.27;;
25237;SDS011;13185;50.872;5.306;2023-11-18T00:22:24;11.45;;;8.07;;
25237;SDS011;13185;50.872;5.306;2023-11-18T00:24:49;10.55;;;7.05;;
25237;SDS011;13185;50.872;5.306;2023-11-18T00:27:16;12.02;;;7.60;;
25237;SDS011;13185;50.872;5.306;2023-11-18T00:29:41;13.63;;;8.60;;
25237;SDS011;13185;50.872;5.306;2023-11-18T00:32:09;9.65;;;7.25;;
25237;SDS011;13185;50.872;5.306;2023-11-18T00:34:34;11.25;;;7.95;;
25237;SDS011;13185;50.872;5.306;2023-11-18T00:37:00;10.35;;;7.13;;
25237;SDS011;13185;50.872;5.306;2023-11-18T00:39:26;15.30;;;7.70;;
25237;SDS011;13185;50.872;5.306;2023-11-18T00:41:52;12.75;;;7.70;;
25237;SDS011;13185;50.872;5.306;2023-11-18T00:44:18;10.88;;;7.10;;
25237;SDS011;13185;50.872;5.306;2023-11-18T00:46:43;13.25;;;7.68;;
25237;SDS011;13185;50.872;5.306;2023-11-18T00:49:09;11.00;;;7.00;;
25237;SDS011;13185;50.872;5.306;2023-11-18T00:51:36;12.32;;;7.50;;
25237;SDS011;13185;50.872;5.306;2023-11-18T00:54:03;12.82;;;7.22;;
25237;SDS011;13185;50.872;5.306;2023-11-18T00:56:33;9.27;;;6.65;;
25237;SDS011;13185;50.872;5.306;2023-11-18T00:58:59;12.77;;;7.07;;
25237;SDS011;13185;50.872;5.306;2023-11-18T01:01:28;11.57;;;7.40;;
25237;SDS011;13185;50.872;5.306;2023-11-18T01:03:56;13.25;;;7.38;;
25237;SDS011;13185;50.872;5.306;2023-11-18T01:06:25;8.80;;;6.68;;
25237;SDS011;13185;50.872;5.306;2023-11-18T01:08:51;10.80;;;7.75;;
25237;SDS011;13185;50.872;5.306;2023-11-18T01:11:17;10.70;;;7.53;;
25237;SDS011;13185;50.872;5.306;2023-11-18T01:13:47;12.45;;;7.43;;
25237;SDS011;13185;50.872;5.306;2023-11-18T01:16:13;10.18;;;7.05;;
25237;SDS011;13185;50.872;5.306;2023-11-18T01:18:40;16.20;;;6.82;;
25237;SDS011;13185;50.872;5.306;2023-11-18T01:21:06;12.90;;;7.60;;
25237;SDS011;13185;50.872;5.306;2023-11-18T01:23:37;11.32;;;6.95;;
25237;SDS011;13185;50.872;5.306;2023-11-18T01:26:04;10.77;;;7.28;;
25237;SDS011;13185;50.872;5.306;2023-11-18T01:28:31;10.88;;;7.45;;
25237;SDS011;13185;50.872;5.306;2023-11-18T01:31:02;12.18;;;8.02;;
25237;SDS011;13185;50.872;5.306;2023-11-18T01:33:40;9.50;;;6.75;;
25237;SDS011;13185;50.872;5.306;2023-11-18T01:36:09;14.40;;;7.22;;
25237;SDS011;13185;50.872;5.306;2023-11-18T01:38:35;9.68;;;6.70;;
25237;SDS011;13185;50.872;5.306;2023-11-18T01:41:03;10.48;;;7.43;;
25237;SDS011;13185;50.872;5.306;2023-11-18T01:43:32;13.00;;;8.27;;
25237;SDS011;13185;50.872;5.306;2023-11-18T01:46:07;12.65;;;8.48;;
25237;SDS011;13185;50.872;5.306;2023-11-18T01:48:35;9.68;;;7.32;;
25237;SDS011;13185;50.872;5.306;2023-11-18T01:51:03;12.57;;;7.53;;
25237;SDS011;13185;50.872;5.306;2023-11-18T01:53:31;11.90;;;8.07;;
25237;SDS011;13185;50.872;5.306;2023-11-18T01:55:58;14.65;;;7.88;;
25237;SDS011;13185;50.872;5.306;2023-11-18T01:58:24;11.88;;;7.65;;
25237;SDS011;13185;50.872;5.306;2023-11-18T02:00:51;10.55;;;7.40;;
25237;SDS011;13185;50.872;5.306;2023-11-18T02:03:17;13.40;;;8.05;;
25237;SDS011;13185;50.872;5.306;2023-11-18T02:05:42;14.00;;;7.50;;
25237;SDS011;13185;50.872;5.306;2023-11-18T02:08:09;12.18;;;7.57;;
25237;SDS011;13185;50.872;5.306;2023-11-18T02:13:21;8.90;;;7.38;;
25237;SDS011;13185;50.872;5.306;2023-11-18T02:15:55;9.60;;;6.95;;
25237;SDS011;13185;50.872;5.306;2023-11-18T02:18:24;12.40;;;6.82;;
25237;SDS011;13185;50.872;5.306;2023-11-18T02:20:54;8.95;;;6.22;;
25237;SDS011;13185;50.872;5.306;2023-11-18T02:23:29;8.75;;;6.43;;
25237;SDS011;13185;50.872;5.306;2023-11-18T02:25:55;9.93;;;6.68;;
25237;SDS011;13185;50.872;5.306;2023-11-18T02:28:21;13.65;;;6.88;;
25237;SDS011;13185;50.872;5.306;2023-11-18T02:30:47;11.25;;;6.38;;
25237;SDS011;13185;50.872;5.306;2023-11-18T02:33:17;9.40;;;5.53;;
25237;SDS011;13185;50.872;5.306;2023-11-18T02:35:51;11.60;;;6.13;;
25237;SDS011;13185;50.872;5.306;2023-11-18T02:38:31;7.97;;;5.53;;
25237;SDS011;13185;50.872;5.306;2023-11-18T02:41:04;8.73;;;5.13;;
25237;SDS011;13185;50.872;5.306;2023-11-18T02:43:35;8.32;;;5.55;;
25237;SDS011;13185;50.872;5.306;2023-11-18T02:46:03;7.00;;;5.22;;
25237;SDS011;13185;50.872;5.306;2023-11-18T02:48:32;7.00;;;5.25;;
25237;SDS011;13185;50.872;5.306;2023-11-18T02:50:58;8.75;;;4.90;;
25237;SDS011;13185;50.872;5.306;2023-11-18T02:53:24;8.85;;;4.95;;
25237;SDS011;13185;50.872;5.306;2023-11-18T02:55:50;7.10;;;4.97;;
25237;SDS011;13185;50.872;5.306;2023-11-18T02:58:17;7.60;;;4.65;;
25237;SDS011;13185;50.872;5.306;2023-11-18T03:00:44;7.68;;;5.30;;
25237;SDS011;13185;50.872;5.306;2023-11-18T03:03:10;5.90;;;4.28;;
25237;SDS011;13185;50.872;5.306;2023-11-18T03:05:36;7.78;;;4.85;;
25237;SDS011;13185;50.872;5.306;2023-11-18T03:08:02;9.73;;;4.78;;
25237;SDS011;13185;50.872;5.306;2023-11-18T03:10:31;10.73;;;5.43;;
25237;SDS011;13185;50.872;5.306;2023-11-18T03:13:00;8.02;;;4.80;;
25237;SDS011;13185;50.872;5.306;2023-11-18T03:15:26;8.50;;;4.93;;
25237;SDS011;13185;50.872;5.306;2023-11-18T03:17:52;10.32;;;5.70;;
25237;SDS011;13185;50.872;5.306;2023-11-18T03:20:20;8.77;;;4.50;;
25237;SDS011;13185;50.872;5.306;2023-11-18T03:22:48;7.72;;;4.43;;
25237;SDS011;13185;50.872;5.306;2023-11-18T03:25:15;8.35;;;4.60;;
25237;SDS011;13185;50.872;5.306;2023-11-18T03:27:42;12.65;;;4.22;;
25237;SDS011;13185;50.872;5.306;2023-11-18T03:30:09;6.43;;;4.60;;
25237;SDS011;13185;50.872;5.306;2023-11-18T03:32:36;4.57;;;4.07;;
25237;SDS011;13185;50.872;5.306;2023-11-18T03:35:05;9.40;;;4.80;;
25237;SDS011;13185;50.872;5.306;2023-11-18T03:37:35;7.45;;;4.28;;
25237;SDS011;13185;50.872;5.306;2023-11-18T03:40:09;5.43;;;3.92;;
25237;SDS011;13185;50.872;5.306;2023-11-18T03:42:36;5.80;;;4.00;;
25237;SDS011;13185;50.872;5.306;2023-11-18T03:45:03;8.93;;;3.90;;
25237;SDS011;13185;50.872;5.306;2023-11-18T03:47:29;6.68;;;4.30;;
25237;SDS011;13185;50.872;5.306;2023-11-18T03:49:56;6.20;;;3.53;;
25237;SDS011;13185;50.872;5.306;2023-11-18T03:52:23;11.68;;;3.75;;
25237;SDS011;13185;50.872;5.306;2023-11-18T03:54:49;9.13;;;3.83;;
25237;SDS011;13185;50.872;5.306;2023-11-18T03:57:14;8.65;;;3.63;;
25237;SDS011;13185;50.872;5.306;2023-11-18T03:59:40;5.07;;;3.40;;
25237;SDS011;13185;50.872;5.306;2023-11-18T04:02:06;4.65;;;3.50;;
25237;SDS011;13185;50.872;5.306;2023-11-18T04:04:32;5.60;;;3.25;;
25237;SDS011;13185;50.872;5.306;2023-11-18T04:06:58;8.50;;;3.45;;
25237;SDS011;13185;50.872;5.306;2023-11-18T04:09:26;7.70;;;3.25;;
25237;SDS011;13185;50.872;5.306;2023-11-18T04:11:52;4.38;;;2.83;;
25237;SDS011;13185;50.872;5.306;2023-11-18T04:14:18;5.95;;;3.30;;
25237;SDS011;13185;50.872;5.306;2023-11-18T04:16:47;7.82;;;3.50;;
25237;SDS011;13185;50.872;5.306;2023-11-18T04:19:15;8.13;;;3.20;;
25237;SDS011;13185;50.872;5.306;2023-11-18T04:21:41;5.43;;;3.03;;
25237;SDS011;13185;50.872;5.306;2023-11-18T04:24:06;6.25;;;3.10;;
25237;SDS011;13185;50.872;5.306;2023-11-18T04:26:32;6.50;;;2.58;;
25237;SDS011;13185;50.872;5.306;2023-11-18T04:28:58;7.35;;;2.42;;
25237;SDS011;13185;50.872;5.306;2023-11-18T04:31:24;4.47;;;2.78;;
25237;SDS011;13185;50.872;5.306;2023-11-18T04:33:50;7.05;;;2.30;;
25237;SDS011;13185;50.872;5.306;2023-11-18T04:36:16;9.07;;;2.38;;
25237;SDS011;13185;50.872;5.306;2023-11-18T04:38:42;5.88;;;2.47;;
25237;SDS011;13185;50.872;5.306;2023-11-18T04:41:11;7.20;;;2.65;;
25237;SDS011;13185;50.872;5.306;2023-11-18T04:43:37;3.30;;;2.20;;
25237;SDS011;13185;50.872;5.306;2023-11-18T04:46:05;5.93;;;2.45;;
25237;SDS011;13185;50.872;5.306;2023-11-18T04:48:31;5.57;;;2.63;;
25237;SDS011;13185;50.872;5.306;2023-11-18T04:50:58;5.28;;;2.30;;
25237;SDS011;13185;50.872;5.306;2023-11-18T04:53:23;3.85;;;2.05;;
25237;SDS011;13185;50.872;5.306;2023-11-18T04:55:50;6.18;;;2.72;;
25237;SDS011;13185;50.872;5.306;2023-11-18T04:58:16;7.00;;;2.17;;
25237;SDS011;13185;50.872;5.306;2023-11-18T05:00:42;6.65;;;2.58;;
25237;SDS011;13185;50.872;5.306;2023-11-18T05:03:08;5.47;;;2.20;;
25237;SDS011;13185;50.872;5.306;2023-11-18T05:05:38;5.03;;;2.00;;
25237;SDS011;13185;50.872;5.306;2023-11-18T05:08:04;5.82;;;1.92;;
25237;SDS011;13185;50.872;5.306;2023-11-18T05:10:32;6.90;;;2.33;;
25237;SDS011;13185;50.872;5.306;2023-11-18T05:13:00;7.40;;;2.60;;
25237;SDS011;13185;50.872;5.306;2023-11-18T05:15:26;8.35;;;2.35;;
25237;SDS011;13185;50.872;5.306;2023-11-18T05:17:52;4.68;;;2.10;;
25237;SDS011;13185;50.872;5.306;2023-11-18T05:20:18;5.78;;;2.95;;
25237;SDS011;13185;50.872;5.306;2023-11-18T05:22:44;4.85;;;2.10;;
25237;SDS011;13185;50.872;5.306;2023-11-18T05:25:10;5.05;;;2.17;;
25237;SDS011;13185;50.872;5.306;2023-11-18T05:27:35;5.55;;;2.42;;
25237;SDS011;13185;50.872;5.306;2023-11-18T05:30:01;7.68;;;2.80;;
25237;SDS011;13185;50.872;5.306;2023-11-18T05:32:28;6.05;;;3.05;;
25237;SDS011;13185;50.872;5.306;2023-11-18T05:34:55;6.15;;;1.95;;
25237;SDS011;13185;50.872;5.306;2023-11-18T05:37:23;7.30;;;1.90;;
25237;SDS011;13185;50.872;5.306;2023-11-18T05:39:49;5.70;;;2.00;;
25237;SDS011;13185;50.872;5.306;2023-11-18T05:42:23;4.90;;;2.22;;
25237;SDS011;13185;50.872;5.306;2023-11-18T05:44:50;7.10;;;2.35;;
25237;SDS011;13185;50.872;5.306;2023-11-18T05:47:23;6.47;;;2.10;;
25237;SDS011;13185;50.872;5.306;2023-11-18T05:49:48;7.40;;;2.50;;
25237;SDS011;13185;50.872;5.306;2023-11-18T05:52:14;6.57;;;2.25;;
25237;SDS011;13185;50.872;5.306;2023-11-18T05:54:40;5.78;;;2.10;;
25237;SDS011;13185;50.872;5.306;2023-11-18T05:57:05;7.65;;;2.53;;
25237;SDS011;13185;50.872;5.306;2023-11-18T05:59:30;5.05;;;2.25;;
25237;SDS011;13185;50.872;5.306;2023-11-18T06:01:56;7.00;;;2.35;;
25237;SDS011;13185;50.872;5.306;2023-11-18T06:04:22;5.40;;;2.50;;
25237;SDS011;13185;50.872;5.306;2023-11-18T06:06:47;5.45;;;2.00;;
25237;SDS011;13185;50.872;5.306;2023-11-18T06:09:13;6.05;;;2.30;;
25237;SDS011;13185;50.872;5.306;2023-11-18T06:11:46;3.80;;;2.53;;
25237;SDS011;13185;50.872;5.306;2023-11-18T06:14:12;5.93;;;2.25;;
25237;SDS011;13185;50.872;5.306;2023-11-18T06:16:38;7.45;;;2.08;;
25237;SDS011;13185;50.872;5.306;2023-11-18T06:19:06;9.85;;;2.10;;
25237;SDS011;13185;50.872;5.306;2023-11-18T06:21:31;7.15;;;2.50;;
25237;SDS011;13185;50.872;5.306;2023-11-18T06:23:58;6.00;;;2.42;;
25237;SDS011;13185;50.872;5.306;2023-11-18T06:26:25;5.88;;;2.28;;
25237;SDS011;13185;50.872;5.306;2023-11-18T06:28:52;6.60;;;2.58;;
25237;SDS011;13185;50.872;5.306;2023-11-18T06:31:19;9.20;;;2.50;;
25237;SDS011;13185;50.872;5.306;2023-11-18T06:33:46;8.93;;;2.45;;
25237;SDS011;13185;50.872;5.306;2023-11-18T06:38:48;4.43;;;1.80;;
25237;SDS011;13185;50.872;5.306;2023-11-18T06:41:15;4.15;;;1.92;;
25237;SDS011;13185;50.872;5.306;2023-11-18T06:43:45;9.63;;;2.33;;
25237;SDS011;13185;50.872;5.306;2023-11-18T06:46:19;5.55;;;2.13;;
25237;SDS011;13185;50.872;5.306;2023-11-18T06:48:50;5.38;;;1.83;;
25237;SDS011;13185;50.872;5.306;2023-11-18T06:51:28;7.03;;;2.53;;
25237;SDS011;13185;50.872;5.306;2023-11-18T06:53:55;4.15;;;2.22;;
25237;SDS011;13185;50.872;5.306;2023-11-18T06:56:21;4.35;;;1.95;;
25237;SDS011;13185;50.872;5.306;2023-11-18T06:58:47;4.80;;;2.05;;
25237;SDS011;13185;50.872;5.306;2023-11-18T07:01:13;6.32;;;1.70;;
25237;SDS011;13185;50.872;5.306;2023-11-18T07:03:43;5.53;;;2.10;;
25237;SDS011;13185;50.872;5.306;2023-11-18T07:06:18;8.82;;;1.65;;
25237;SDS011;13185;50.872;5.306;2023-11-18T07:08:52;6.38;;;1.88;;
25237;SDS011;13185;50.872;5.306;2023-11-18T07:11:19;6.93;;;1.90;;
25237;SDS011;13185;50.872;5.306;2023-11-18T07:13:47;7.75;;;2.28;;
25237;SDS011;13185;50.872;5.306;2023-11-18T07:16:14;6.68;;;2.20;;
25237;SDS011;13185;50.872;5.306;2023-11-18T07:18:40;4.38;;;1.73;;
25237;SDS011;13185;50.872;5.306;2023-11-18T07:21:09;8.82;;;2.65;;
25237;SDS011;13185;50.872;5.306;2023-11-18T07:23:35;6.72;;;2.53;;
25237;SDS011;13185;50.872;5.306;2023-11-18T07:26:01;4.18;;;1.63;;
25237;SDS011;13185;50.872;5.306;2023-11-18T07:28:39;6.03;;;1.58;;
25237;SDS011;13185;50.872;5.306;2023-11-18T07:31:05;4.80;;;1.95;;
25237;SDS011;13185;50.872;5.306;2023-11-18T07:33:30;6.20;;;1.75;;
25237;SDS011;13185;50.872;5.306;2023-11-18T07:35:57;6.82;;;1.80;;
25237;SDS011;13185;50.872;5.306;2023-11-18T07:38:23;4.72;;;1.70;;
25237;SDS011;13185;50.872;5.306;2023-11-18T07:40:49;9.20;;;2.03;;
25237;SDS011;13185;50.872;5.306;2023-11-18T07:43:15;4.53;;;1.95;;
25237;SDS011;13185;50.872;5.306;2023-11-18T07:45:41;5.50;;;1.60;;
25237;SDS011;13185;50.872;5.306;2023-11-18T07:48:11;8.73;;;2.33;;
25237;SDS011;13185;50.872;5.306;2023-11-18T07:50:37;7.75;;;1.63;;
25237;SDS011;13185;50.872;5.306;2023-11-18T07:53:06;4.68;;;2.05;;
25237;SDS011;13185;50.872;5.306;2023-11-18T07:55:32;5.43;;;1.77;;
25237;SDS011;13185;50.872;5.306;2023-11-18T07:58:07;8.10;;;2.22;;
25237;SDS011;13185;50.872;5.306;2023-11-18T08:00:40;10.77;;;1.98;;
25237;SDS011;13185;50.872;5.306;2023-11-18T08:03:06;5.03;;;1.90;;
25237;SDS011;13185;50.872;5.306;2023-11-18T08:05:37;5.30;;;2.63;;
25237;SDS011;13185;50.872;5.306;2023-11-18T08:08:08;9.07;;;1.90;;
25237;SDS011;13185;50.872;5.306;2023-11-18T08:10:38;9.73;;;2.70;;
25237;SDS011;13185;50.872;5.306;2023-11-18T08:13:05;9.40;;;2.78;;
25237;SDS011;13185;50.872;5.306;2023-11-18T08:15:33;9.77;;;2.17;;
25237;SDS011;13185;50.872;5.306;2023-11-18T08:18:11;5.07;;;2.33;;
25237;SDS011;13185;50.872;5.306;2023-11-18T08:20:37;7.55;;;2.63;;
25237;SDS011;13185;50.872;5.306;2023-11-18T08:23:03;4.90;;;2.13;;
25237;SDS011;13185;50.872;5.306;2023-11-18T08:25:32;6.50;;;2.35;;
25237;SDS011;13185;50.872;5.306;2023-11-18T08:27:59;7.53;;;2.30;;
25237;SDS011;13185;50.872;5.306;2023-11-18T08:30:29;5.18;;;2.33;;
25237;SDS011;13185;50.872;5.306;2023-11-18T08:32:54;7.15;;;2.03;;
25237;SDS011;13185;50.872;5.306;2023-11-18T08:35:20;9.13;;;2.55;;
25237;SDS011;13185;50.872;5.306;2023-11-18T08:37:46;6.40;;;2.40;;
25237;SDS011;13185;50.872;5.306;2023-11-18T08:40:13;7.97;;;2.60;;
25237;SDS011;13185;50.872;5.306;2023-11-18T08:42:50;5.55;;;2.20;;
25237;SDS011;13185;50.872;5.306;2023-11-18T08:45:17;7.13;;;2.30;;
25237;SDS011;13185;50.872;5.306;2023-11-18T08:47:54;8.60;;;2.63;;
25237;SDS011;13185;50.872;5.306;2023-11-18T08:50:23;6.05;;;2.15;;
25237;SDS011;13185;50.872;5.306;2023-11-18T08:52:53;7.30;;;2.28;;
25237;SDS011;13185;50.872;5.306;2023-11-18T08:55:28;10.18;;;2.35;;
25237;SDS011;13185;50.872;5.306;2023-11-18T08:58:08;7.22;;;1.95;;
25237;SDS011;13185;50.872;5.306;2023-11-18T09:00:53;10.65;;;2.90;;
25237;SDS011;13185;50.872;5.306;2023-11-18T09:03:24;7.38;;;2.00;;
25237;SDS011;13185;50.872;5.306;2023-11-18T09:05:53;8.50;;;2.15;;
25237;SDS011;13185;50.872;5.306;2023-11-18T09:08:27;5.95;;;2.20;;
25237;SDS011;13185;50.872;5.306;2023-11-18T09:10:57;7.22;;;2.40;;
25237;SDS011;13185;50.872;5.306;2023-11-18T09:13:24;7.43;;;2.55;;
25237;SDS011;13185;50.872;5.306;2023-11-18T09:15:54;5.13;;;2.10;;
25237;SDS011;13185;50.872;5.306;2023-11-18T09:18:25;4.30;;;2.40;;
25237;SDS011;13185;50.872;5.306;2023-11-18T09:20:53;5.78;;;2.88;;
25237;SDS011;13185;50.872;5.306;2023-11-18T09:23:35;9.55;;;2.70;;
25237;SDS011;13185;50.872;5.306;2023-11-18T09:26:00;4.35;;;2.00;;
25237;SDS011;13185;50.872;5.306;2023-11-18T09:28:27;8.63;;;2.95;;
25237;SDS011;13185;50.872;5.306;2023-11-18T09:30:56;4.55;;;2.10;;
25237;SDS011;13185;50.872;5.306;2023-11-18T09:33:23;9.75;;;2.40;;
25237;SDS011;13185;50.872;5.306;2023-11-18T09:36:03;6.63;;;2.25;;
25237;SDS011;13185;50.872;5.306;2023-11-18T09:38:35;11.48;;;2.15;;
25237;SDS011;13185;50.872;5.306;2023-11-18T09:41:04;10.15;;;2.92;;
25237;SDS011;13185;50.872;5.306;2023-11-18T09:43:36;7.70;;;2.45;;
25237;SDS011;13185;50.872;5.306;2023-11-18T09:46:24;9.80;;;2.90;;
25237;SDS011;13185;50.872;5.306;2023-11-18T09:51:51;9.50;;;2.58;;
25237;SDS011;13185;50.872;5.306;2023-11-18T10:02:49;5.50;;;2.10;;
25237;SDS011;13185;50.872;5.306;2023-11-18T10:05:15;12.48;;;2.20;;
25237;SDS011;13185;50.872;5.306;2023-11-18T10:07:46;7.65;;;1.67;;
25237;SDS011;13185;50.872;5.306;2023-11-18T10:10:12;5.30;;;2.13;;
25237;SDS011;13185;50.872;5.306;2023-11-18T10:12:45;5.18;;;2.35;;
25237;SDS011;13185;50.872;5.306;2023-11-18T10:15:18;7.50;;;2.40;;
25237;SDS011;13185;50.872;5.306;2023-11-18T10:17:48;4.68;;;2.00;;
25237;SDS011;13185;50.872;5.306;2023-11-18T10:23:07;10.15;;;2.22;;
25237;SDS011;13185;50.872;5.306;2023-11-18T10:25:35;6.40;;;1.75;;
25237;SDS011;13185;50.872;5.306;2023-11-18T10:28:06;7.60;;;2.30;;
25237;SDS011;13185;50.872;5.306;2023-11-18T10:30:42;5.85;;;2.30;;
25237;SDS011;13185;50.872;5.306;2023-11-18T10:33:13;10.00;;;2.25;;
25237;SDS011;13185;50.872;5.306;2023-11-18T10:35:48;8.05;;;2.35;;
25237;SDS011;13185;50.872;5.306;2023-11-18T10:38:16;5.60;;;2.78;;
25237;SDS011;13185;50.872;5.306;2023-11-18T10:40:42;7.80;;;2.88;;
25237;SDS011;13185;50.872;5.306;2023-11-18T10:43:18;5.25;;;1.73;;
25237;SDS011;13185;50.872;5.306;2023-11-18T10:45:43;9.15;;;2.30;;
25237;SDS011;13185;50.872;5.306;2023-11-18T10:48:12;10.27;;;2.35;;
25237;SDS011;13185;50.872;5.306;2023-11-18T10:50:41;8.93;;;2.30;;
25237;SDS011;13185;50.872;5.306;2023-11-18T10:53:10;4.38;;;1.40;;
25237;SDS011;13185;50.872;5.306;2023-11-18T10:55:38;3.20;;;1.58;;
25237;SDS011;13185;50.872;5.306;2023-11-18T10:58:05;10.52;;;1.50;;
25237;SDS011;13185;50.872;5.306;2023-11-18T11:00:51;7.88;;;2.92;;
25237;SDS011;13185;50.872;5.306;2023-11-18T11:03:25;6.22;;;1.90;;
25237;SDS011;13185;50.872;5.306;2023-11-18T11:05:51;5.57;;;1.65;;
25237;SDS011;13185;50.872;5.306;2023-11-18T11:08:19;9.68;;;2.90;;
25237;SDS011;13185;50.872;5.306;2023-11-18T11:10:45;8.68;;;2.35;;
25237;SDS011;13185;50.872;5.306;2023-11-18T11:13:14;5.70;;;1.65;;
25237;SDS011;13185;50.872;5.306;2023-11-18T11:15:43;6.45;;;1.92;;
25237;SDS011;13185;50.872;5.306;2023-11-18T11:18:11;6.05;;;1.83;;
25237;SDS011;13185;50.872;5.306;2023-11-18T11:31:46;3.90;;;1.58;;
25237;SDS011;13185;50.872;5.306;2023-11-18T11:34:17;5.30;;;1.48;;
25237;SDS011;13185;50.872;5.306;2023-11-18T11:36:49;5.97;;;1.70;;
25237;SDS011;13185;50.872;5.306;2023-11-18T11:39:18;3.78;;;1.38;;
25237;SDS011;13185;50.872;5.306;2023-11-18T11:41:51;4.05;;;1.52;;
25237;SDS011;13185;50.872;5.306;2023-11-18T11:44:19;6.53;;;1.55;;
25237;SDS011;13185;50.872;5.306;2023-11-18T11:46:46;4.20;;;1.33;;
25237;SDS011;13185;50.872;5.306;2023-11-18T11:49:19;3.47;;;1.20;;
25237;SDS011;13185;50.872;5.306;2023-11-18T11:54:21;2.70;;;1.30;;
25237;SDS011;13185;50.872;5.306;2023-11-18T11:56:57;4.60;;;1.27;;
25237;SDS011;13185;50.872;5.306;2023-11-18T12:02:15;2.15;;;0.85;;
25237;SDS011;13185;50.872;5.306;2023-11-18T12:04:44;4.72;;;1.33;;
25237;SDS011;13185;50.872;5.306;2023-11-18T12:07:14;5.60;;;1.40;;
25237;SDS011;13185;50.872;5.306;2023-11-18T12:09:41;3.80;;;1.08;;
25237;SDS011;13185;50.872;5.306;2023-11-18T12:12:22;2.67;;;0.77;;
25237;SDS011;13185;50.872;5.306;2023-11-18T12:14:52;3.75;;;1.17;;
25237;SDS011;13185;50.872;5.306;2023-11-18T12:17:21;1.55;;;1.00;;
25237;SDS011;13185;50.872;5.306;2023-11-18T12:19:48;2.65;;;1.00;;
25237;SDS011;13185;50.872;5.306;2023-11-18T12:22:20;3.50;;;1.63;;
25237;SDS011;13185;50.872;5.306;2023-11-18T12:35:32;3.38;;;0.80;;
25237;SDS011;13185;50.872;5.306;2023-11-18T12:47:17;1.08;;;0.40;;
25237;SDS011;13185;50.872;5.306;2023-11-18T12:49:47;2.55;;;0.50;;
25237;SDS011;13185;50.872;5.306;2023-11-18T12:52:19;1.65;;;0.75;;
25237;SDS011;13185;50.872;5.306;2023-11-18T12:54:47;3.95;;;0.57;;
25237;SDS011;13185;50.872;5.306;2023-11-18T12:57:16;1.98;;;0.40;;
25237;SDS011;13185;50.872;5.306;2023-11-18T12:59:42;1.15;;;0.30;;
25237;SDS011;13185;50.872;5.306;2023-11-18T13:02:09;1.23;;;0.40;;
25237;SDS011;13185;50.872;5.306;2023-11-18T13:04:40;1.33;;;0.20;;
25237;SDS011;13185;50.872;5.306;2023-11-18T13:07:06;2.08;;;0.40;;
25237;SDS011;13185;50.872;5.306;2023-11-18T13:09:36;1.40;;;0.32;;
25237;SDS011;13185;50.872;5.306;2023-11-18T13:12:03;2.70;;;0.50;;
25237;SDS011;13185;50.872;5.306;2023-11-18T13:14:33;0.60;;;0.20;;
25237;SDS011;13185;50.872;5.306;2023-11-18T13:17:02;2.03;;;0.77;;
25237;SDS011;13185;50.872;5.306;2023-11-18T13:19:34;0.32;;;0.28;;
25237;SDS011;13185;50.872;5.306;2023-11-18T13:22:00;1.85;;;0.30;;
25237;SDS011;13185;50.872;5.306;2023-11-18T13:24:29;0.40;;;0.10;;
25237;SDS011;13185;50.872;5.306;2023-11-18T13:26:56;1.92;;;0.20;;
25237;SDS011;13185;50.872;5.306;2023-11-18T13:29:23;0.75;;;0.38;;
25237;SDS011;13185;50.872;5.306;2023-11-18T13:31:49;2.03;;;0.32;;
25237;SDS011;13185;50.872;5.306;2023-11-18T13:34:19;2.10;;;0.25;;
25237;SDS011;13185;50.872;5.306;2023-11-18T13:36:48;0.63;;;0.20;;
25237;SDS011;13185;50.872;5.306;2023-11-18T13:39:15;1.08;;;0.20;;
25237;SDS011;13185;50.872;5.306;2023-11-18T13:41:42;0.25;;;0.10;;
25237;SDS011;13185;50.872;5.306;2023-11-18T13:44:10;0.25;;;0.10;;
25237;SDS011;13185;50.872;5.306;2023-11-18T13:46:38;1.17;;;0.20;;
25237;SDS011;13185;50.872;5.306;2023-11-18T13:49:05;0.22;;;0.22;;
25237;SDS011;13185;50.872;5.306;2023-11-18T13:51:31;0.90;;;0.20;;
25237;SDS011;13185;50.872;5.306;2023-11-18T13:53:58;1.17;;;0.40;;
25237;SDS011;13185;50.872;5.306;2023-11-18T13:56:28;1.45;;;0.10;;
25237;SDS011;13185;50.872;5.306;2023-11-18T13:58:55;0.25;;;0.10;;
25237;SDS011;13185;50.872;5.306;2023-11-18T14:01:21;1.40;;;0.30;;
25237;SDS011;13185;50.872;5.306;2023-11-18T14:03:46;0.32;;;0.20;;
25237;SDS011;13185;50.872;5.306;2023-11-18T14:06:13;1.90;;;0.10;;
25237;SDS011;13185;50.872;5.306;2023-11-18T14:08:51;0.38;;;0.10;;
25237;SDS011;13185;50.872;5.306;2023-11-18T14:11:16;0.70;;;0.43;;
25237;SDS011;13185;50.872;5.306;2023-11-18T14:13:42;0.32;;;0.10;;
25237;SDS011;13185;50.872;5.306;2023-11-18T14:16:08;1.88;;;0.20;;
25237;SDS011;13185;50.872;5.306;2023-11-18T14:18:35;0.65;;;0.20;;
25237;SDS011;13185;50.872;5.306;2023-11-18T14:21:01;1.92;;;0.88;;
25237;SDS011;13185;50.872;5.306;2023-11-18T14:23:27;0.40;;;0.13;;
25237;SDS011;13185;50.872;5.306;2023-11-18T14:25:52;2.00;;;0.20;;
25237;SDS011;13185;50.872;5.306;2023-11-18T14:28:18;0.80;;;0.25;;
25237;SDS011;13185;50.872;5.306;2023-11-18T14:30:44;0.40;;;0.20;;
25237;SDS011;13185;50.872;5.306;2023-11-18T14:33:09;0.30;;;0.15;;
25237;SDS011;13185;50.872;5.306;2023-11-18T14:35:35;0.70;;;0.30;;
25237;SDS011;13185;50.872;5.306;2023-11-18T14:38:01;0.60;;;0.17;;
25237;SDS011;13185;50.872;5.306;2023-11-18T14:40:27;0.40;;;0.20;;
25237;SDS011;13185;50.872;5.306;2023-11-18T14:42:57;0.30;;;0.28;;
25237;SDS011;13185;50.872;5.306;2023-11-18T14:45:25;0.63;;;0.30;;
25237;SDS011;13185;50.872;5.306;2023-11-18T14:47:50;0.60;;;0.20;;
25237;SDS011;13185;50.872;5.306;2023-11-18T14:50:20;0.40;;;0.25;;
25237;SDS011;13185;50.872;5.306;2023-11-18T14:52:49;0.85;;;0.35;;
25237;SDS011;13185;50.872;5.306;2023-11-18T14:55:25;0.77;;;0.30;;
25237;SDS011;13185;50.872;5.306;2023-11-18T14:57:51;2.70;;;0.60;;
25237;SDS011;13185;50.872;5.306;2023-11-18T15:00:17;0.80;;;0.20;;
25237;SDS011;13185;50.872;5.306;2023-11-18T15:02:51;0.40;;;0.20;;
25237;SDS011;13185;50.872;5.306;2023-11-18T15:05:19;0.30;;;0.10;;
25237;SDS011;13185;50.872;5.306;2023-11-18T15:10:14;0.17;;;0.10;;
25237;SDS011;13185;50.872;5.306;2023-11-18T15:12:50;0.10;;;0.05;;
25237;SDS011;13185;50.872;5.306;2023-11-18T15:15:20;0.45;;;0.20;;
25237;SDS011;13185;50.872;5.306;2023-11-18T15:17:57;0.15;;;0.03;;
25237;SDS011;13185;50.872;5.306;2023-11-18T15:20:25;0.88;;;0.57;;
25237;SDS011;13185;50.872;5.306;2023-11-18T15:22:53;0.70;;;0.45;;
25237;SDS011;13185;50.872;5.306;2023-11-18T15:25:20;2.17;;;0.93;;
25237;SDS011;13185;50.872;5.306;2023-11-18T15:27:46;0.88;;;0.50;;
25237;SDS011;13185;50.872;5.306;2023-11-18T15:30:15;0.52;;;0.20;;
25237;SDS011;13185;50.872;5.306;2023-11-18T15:32:43;0.28;;;0.10;;
25237;SDS011;13185;50.872;5.306;2023-11-18T15:35:09;0.17;;;0.03;;
25237;SDS011;13185;50.872;5.306;2023-11-18T15:37:39;0.95;;;0.10;;
25237;SDS011;13185;50.872;5.306;2023-11-18T15:40:11;0.10;;;0.00;;
25237;SDS011;13185;50.872;5.306;2023-11-18T15:42:39;1.95;;;0.20;;
25237;SDS011;13185;50.872;5.306;2023-11-18T15:45:12;0.47;;;0.10;;
25237;SDS011;13185;50.872;5.306;2023-11-18T15:47:40;0.82;;;0.10;;
25237;SDS011;13185;50.872;5.306;2023-11-18T15:50:10;0.20;;;0.10;;